EGGW/LTN METAR and TAF weather

Enter ICAO airport designator
Station Type Date Time Source
EGGW METAR 2018/06/25 16:50 UTC NOAA

EGGW 251650Z AUTO 35007KT 320V050 9999 NCD 27/04 Q1025


Station Type Date Time Source
EGGW Decoded METAR 2018/06/25 16:50 UTC NOAA

Luton Airport , United Kingdom (EGGW) 51-52N 000-22W
Jun 25, 2018 - 12:50 PM EDT / 2018.06.25 1650 UTC
Wind: from the N (350 degrees) at 8 MPH (7 KT) (direction variable):0
Visibility: greater than 7 mile(s):0
Temperature: 80 F (27 C)
Dew Point: 39 F (4 C)
Relative Humidity: 22%
Pressure (altimeter): 30.27 in. Hg (1025 hPa)
ob: EGGW 251650Z AUTO 35007KT 320V050 9999 NCD 27/04 Q1025
cycle: 17

Station Type Date Time Source
EGGW TAF 2018/06/25 18:00 UTC NOAA

TAF EGGW 251659Z 2518/2618 02007KT CAVOK


Example: see airport list